Time;durP1;ratioP1;P1;durP2;ratioP2;P2;SDS_P1;SDS_P2;PMS_P1;PMS_P2;Temp;Humidity;BMP_temperature;BMP_pressure;BME280_temperature;BME280_humidity;BME280_pressure;Samples;Min_cycle;Max_cycle;Signal;HPM_P1;HPM_P2
2022/01/10 00:02:07;;;;;;;;;;;3.90;99.90;;;;;;5057700;28;19924;-79
2022/01/10 00:04:33;;;;;;;;;;;3.80;99.90;;;;;;5057472;28;20015;-77
2022/01/10 00:06:59;;;;;;;;;;;4.40;99.90;;;;;;5057513;28;19960;-82
2022/01/10 00:09:24;;;;;;;;;;;4.20;99.90;;;;;;5056126;28;19927;-76
2022/01/10 00:11:50;;;;;;;;;;;5.40;99.90;;;;;;5057188;28;19921;-77
2022/01/10 00:14:15;;;;;;;;;;;3.40;99.90;;;;;;5057168;28;20364;-81
2022/01/10 00:16:41;;;;;;;;;;;4.70;99.90;;;;;;5056914;28;20330;-76
2022/01/10 00:19:06;;;;;;;;;;;3.10;99.90;;;;;;5057308;28;20070;-78
2022/01/10 00:21:32;;;;;;;;;;;3.30;99.90;;;;;;5056069;28;19928;-76
2022/01/10 00:23:58;;;;;;;;;;;4.10;99.90;;;;;;5057113;28;19920;-76
2022/01/10 00:26:24;;;;;;;;;;;3.70;99.90;;;;;;5055928;28;19920;-76
2022/01/10 00:28:49;;;;;;;;;;;5.30;99.90;;;;;;5055865;28;19920;-77
2022/01/10 00:31:15;;;;;;;;;;;3.40;99.90;;;;;;5057091;28;19920;-76
2022/01/10 00:33:40;;;;;;;;;;;4.30;99.90;;;;;;5056746;28;19921;-79
2022/01/10 00:36:06;;;;;;;;;;;3.20;99.90;;;;;;5056855;28;19920;-77
2022/01/10 00:38:32;;;;;;;;;;;3.20;99.90;;;;;;5056877;28;19921;-77
2022/01/10 00:40:59;;;;;;;;;;;3.20;99.90;;;;;;5056685;28;19967;-77
2022/01/10 00:43:33;;;;;;;;;;;3.80;99.90;;;;;;5056491;28;20384;-79
2022/01/10 00:45:59;;;;;;;;;;;3.40;99.90;;;;;;5055634;28;19920;-76
2022/01/10 00:48:25;;;;;;;;;;;4.10;99.90;;;;;;5056800;28;20294;-76
2022/01/10 00:50:51;;;;;;;;;;;3.10;99.90;;;;;;5056747;28;19921;-76
2022/01/10 00:53:16;;;;;;;;;;;4.70;99.90;;;;;;5056552;28;20020;-76
2022/01/10 00:55:42;;;;;;;;;;;3.00;99.90;;;;;;5056471;28;20379;-82
2022/01/10 00:58:08;;;;;;;;;;;3.10;99.90;;;;;;5056256;28;20331;-76
2022/01/10 01:00:34;;;;;;;;;;;3.80;99.90;;;;;;5055207;28;19921;-80
2022/01/10 01:02:59;;;;;;;;;;;3.00;99.90;;;;;;5055291;28;19921;-77
2022/01/10 01:05:26;;;;;;;;;;;3.00;99.90;;;;;;5054963;28;20293;-76
2022/01/10 01:07:52;;;;;;;;;;;3.00;99.90;;;;;;5056423;28;19928;-77
2022/01/10 01:13:10;;;;;;;;;;;2.70;99.90;;;;;;5054978;28;19928;-77
2022/01/10 01:15:55;;;;;;;;;;;3.00;99.90;;;;;;5054859;28;19966;-77
2022/01/10 01:18:43;;;;;;;;;;;4.40;99.90;;;;;;5053959;28;20018;-76
2022/01/10 01:24:08;;;;;;;;;;;3.50;99.90;;;;;;5032631;28;19924;-76
2022/01/10 01:26:45;;;;;;;;;;;2.70;99.90;;;;;;5032590;28;19921;-76
2022/01/10 01:29:12;;;;;;;;;;;3.90;99.90;;;;;;5016166;28;19921;-77
2022/01/10 01:31:37;;;;;;;;;;;2.70;99.90;;;;;;5032522;28;19925;-76
2022/01/10 01:34:03;;;;;;;;;;;2.90;99.90;;;;;;5032562;28;20351;-80
2022/01/10 01:36:30;;;;;;;;;;;2.60;99.90;;;;;;5032377;28;19981;-80
2022/01/10 01:38:56;;;;;;;;;;;4.10;99.90;;;;;;5032529;28;19925;-75
2022/01/10 01:43:48;;;;;;;;;;;3.40;99.90;;;;;;5032378;28;19968;-78
2022/01/10 01:46:14;;;;;;;;;;;2.30;99.90;;;;;;5032381;28;19928;-81
2022/01/10 01:48:39;;;;;;;;;;;3.10;99.90;;;;;;5015811;28;20300;-76
2022/01/10 01:51:05;;;;;;;;;;;3.40;99.90;;;;;;5032240;28;20007;-80
2022/01/10 01:53:31;;;;;;;;;;;3.20;99.90;;;;;;5015889;28;19920;-76
2022/01/10 01:55:57;;;;;;;;;;;3.00;99.90;;;;;;5015742;28;19921;-76
2022/01/10 01:58:23;;;;;;;;;;;4.40;99.90;;;;;;5032146;28;19924;-78
2022/01/10 02:00:49;;;;;;;;;;;3.40;99.90;;;;;;5040782;28;19921;-77
2022/01/10 02:03:14;;;;;;;;;;;2.30;99.90;;;;;;5054117;28;19928;-76
2022/01/10 02:05:40;;;;;;;;;;;2.70;99.90;;;;;;5054186;28;19921;-78
2022/01/10 02:08:07;;;;;;;;;;;2.20;99.90;;;;;;5054041;28;20296;-76
2022/01/10 02:10:33;;;;;;;;;;;2.20;99.90;;;;;;5016250;28;1110162;-76
2022/01/10 02:12:59;;;;;;;;;;;2.30;99.90;;;;;;5054951;28;20044;-81
2022/01/10 02:15:35;;;;;;;;;;;2.20;99.90;;;;;;5054898;28;20257;-79
2022/01/10 02:18:01;;;;;;;;;;;2.20;99.90;;;;;;5054010;28;19975;-76
2022/01/10 02:20:27;;;;;;;;;;;2.20;99.90;;;;;;5054777;28;19928;-76
2022/01/10 02:22:53;;;;;;;;;;;2.10;99.90;;;;;;5054717;28;19931;-76
2022/01/10 02:25:19;;;;;;;;;;;2.20;99.90;;;;;;5054939;28;20015;-76
2022/01/10 02:27:45;;;;;;;;;;;3.80;99.90;;;;;;5054744;28;19927;-76
2022/01/10 02:30:11;;;;;;;;;;;2.20;99.90;;;;;;5053790;28;19967;-78
2022/01/10 02:32:37;;;;;;;;;;;2.20;99.90;;;;;;5053439;28;20371;-76
2022/01/10 02:35:03;;;;;;;;;;;3.40;99.90;;;;;;5054541;28;19927;-80
2022/01/10 02:37:32;;;;;;;;;;;2.30;99.90;;;;;;5054347;28;19928;-75
2022/01/10 02:39:59;;;;;;;;;;;3.80;99.90;;;;;;5054593;28;19920;-76
2022/01/10 02:42:24;;;;;;;;;;;2.30;99.90;;;;;;5054461;28;19967;-80
2022/01/10 02:44:50;;;;;;;;;;;2.60;99.90;;;;;;5054419;28;19963;-77
2022/01/10 02:47:15;;;;;;;;;;;3.10;99.90;;;;;;5069791;28;19927;-75
2022/01/10 02:49:41;;;;;;;;;;;2.60;99.90;;;;;;5054228;28;19921;-76
2022/01/10 02:52:07;;;;;;;;;;;1.60;99.90;;;;;;5054173;28;19925;-76
2022/01/10 02:54:32;;;;;;;;;;;2.20;99.90;;;;;;5054616;28;19924;-79
2022/01/10 02:56:58;;;;;;;;;;;2.90;99.90;;;;;;5054161;28;19920;-77
2022/01/10 02:59:24;;;;;;;;;;;3.00;99.90;;;;;;5054294;28;19920;-76
2022/01/10 03:01:50;;;;;;;;;;;3.80;99.90;;;;;;5054101;28;19921;-77
2022/01/10 03:04:16;;;;;;;;;;;3.40;99.90;;;;;;5054045;28;20334;-76
2022/01/10 03:06:42;;;;;;;;;;;3.80;99.90;;;;;;5053980;28;19920;-76
2022/01/10 03:09:09;;;;;;;;;;;3.20;99.90;;;;;;5053936;28;19944;-76
2022/01/10 03:11:37;;;;;;;;;;;2.20;99.90;;;;;;5053071;28;19921;-75
2022/01/10 03:14:03;;;;;;;;;;;3.50;99.90;;;;;;5053843;28;19983;-79
2022/01/10 03:16:29;;;;;;;;;;;2.10;99.90;;;;;;5053815;28;19968;-75
2022/01/10 03:18:54;;;;;;;;;;;2.10;99.90;;;;;;5053865;28;19921;-79
2022/01/10 03:21:20;;;;;;;;;;;2.20;99.90;;;;;;5053768;28;19927;-76
2022/01/10 03:23:46;;;;;;;;;;;2.10;99.90;;;;;;5053651;28;19921;-76
2022/01/10 03:26:12;;;;;;;;;;;2.10;99.90;;;;;;5053874;28;19920;-75
2022/01/10 03:28:37;;;;;;;;;;;3.50;99.90;;;;;;5053583;28;19928;-76
2022/01/10 03:31:03;;;;;;;;;;;2.10;99.90;;;;;;5053749;28;19921;-76
2022/01/10 03:33:28;;;;;;;;;;;2.90;99.90;;;;;;5053696;28;19928;-76
2022/01/10 03:35:54;;;;;;;;;;;3.50;99.90;;;;;;5052369;28;19920;-79
2022/01/10 03:38:20;;;;;;;;;;;2.00;99.90;;;;;;5053391;28;19947;-79
2022/01/10 03:40:45;;;;;;;;;;;3.60;99.90;;;;;;5053717;28;19921;-78
2022/01/10 03:43:11;;;;;;;;;;;2.30;99.90;;;;;;5053615;28;19927;-80
2022/01/10 03:45:37;;;;;;;;;;;2.40;99.90;;;;;;5053651;28;20292;-76
2022/01/10 03:48:02;;;;;;;;;;;3.10;99.90;;;;;;5053544;28;19967;-79
2022/01/10 03:50:28;;;;;;;;;;;2.00;99.90;;;;;;5052585;28;19921;-77
2022/01/10 03:52:54;;;;;;;;;;;1.90;99.90;;;;;;5052047;28;19920;-76
2022/01/10 03:55:19;;;;;;;;;;;1.90;99.90;;;;;;5053354;28;19927;-80
2022/01/10 03:57:45;;;;;;;;;;;1.90;99.90;;;;;;5053486;28;19928;-81
2022/01/10 04:00:11;;;;;;;;;;;2.70;99.90;;;;;;5052516;28;20376;-76
2022/01/10 04:02:38;;;;;;;;;;;1.90;99.90;;;;;;5053472;28;20338;-79
2022/01/10 04:05:04;;;;;;;;;;;1.80;99.90;;;;;;5053328;28;19920;-75
2022/01/10 04:07:30;;;;;;;;;;;1.80;99.90;;;;;;5053299;28;20426;-75
2022/01/10 04:09:55;;;;;;;;;;;1.80;99.90;;;;;;5053306;28;19921;-80
2022/01/10 04:12:21;;;;;;;;;;;1.80;99.90;;;;;;5052383;28;19921;-76
2022/01/10 04:14:47;;;;;;;;;;;1.80;99.90;;;;;;5052497;28;20273;-76
2022/01/10 04:17:13;;;;;;;;;;;1.70;99.90;;;;;;5053198;28;19925;-79
2022/01/10 04:19:39;;;;;;;;;;;1.80;99.90;;;;;;5053341;28;20299;-80
2022/01/10 04:22:04;;;;;;;;;;;3.10;99.90;;;;;;5053138;28;19920;-78
2022/01/10 04:24:30;;;;;;;;;;;2.20;99.90;;;;;;5053045;28;20058;-78
2022/01/10 04:26:56;;;;;;;;;;;3.60;99.90;;;;;;5053226;28;19928;-76
2022/01/10 04:29:21;;;;;;;;;;;3.00;99.90;;;;;;5053167;28;20015;-76
2022/01/10 04:31:47;;;;;;;;;;;1.80;99.90;;;;;;5053210;28;19947;-76
2022/01/10 04:34:12;;;;;;;;;;;2.20;99.90;;;;;;5053156;28;20015;-77
2022/01/10 04:36:38;;;;;;;;;;;1.70;99.90;;;;;;5052861;28;19920;-76
2022/01/10 04:39:04;;;;;;;;;;;3.60;99.90;;;;;;5053030;28;19927;-82
2022/01/10 04:41:29;;;;;;;;;;;1.70;99.90;;;;;;5055388;28;19940;-75
2022/01/10 04:43:55;;;;;;;;;;;1.90;99.90;;;;;;5056726;28;20019;-75
2022/01/10 04:46:20;;;;;;;;;;;3.20;99.90;;;;;;5039259;28;20098;-77
2022/01/10 04:48:46;;;;;;;;;;;1.70;99.90;;;;;;5056664;28;20268;-76
2022/01/10 04:51:14;;;;;;;;;;;2.20;99.90;;;;;;5056599;28;19925;-78
2022/01/10 04:53:44;;;;;;;;;;;1.70;99.90;;;;;;5056479;28;19927;-76
2022/01/10 04:56:10;;;;;;;;;;;1.40;99.90;;;;;;5056338;28;19920;-76
2022/01/10 04:58:36;;;;;;;;;;;1.60;99.90;;;;;;5056513;28;19920;-76
2022/01/10 05:01:03;;;;;;;;;;;1.60;99.90;;;;;;5056357;28;19921;-75
2022/01/10 05:03:29;;;;;;;;;;;2.90;99.90;;;;;;5056388;28;20015;-79
2022/01/10 05:05:55;;;;;;;;;;;2.70;99.90;;;;;;5056268;28;19996;-74
2022/01/10 05:08:21;;;;;;;;;;;3.60;99.90;;;;;;5056236;28;20015;-76
2022/01/10 05:10:49;;;;;;;;;;;2.20;99.90;;;;;;5054594;28;20011;-80
2022/01/10 05:13:15;;;;;;;;;;;1.60;99.90;;;;;;5056131;28;19963;-76
2022/01/10 05:15:42;;;;;;;;;;;1.60;99.90;;;;;;5056174;28;19967;-76
2022/01/10 05:18:09;;;;;;;;;;;1.60;99.90;;;;;;5056039;28;20279;-76
2022/01/10 05:20:35;;;;;;;;;;;1.60;99.90;;;;;;5056054;28;19928;-77
2022/01/10 05:23:01;;;;;;;;;;;2.50;99.90;;;;;;5056036;28;19920;-76
2022/01/10 05:25:26;;;;;;;;;;;1.60;99.90;;;;;;5055793;28;19948;-76
2022/01/10 05:27:52;;;;;;;;;;;3.20;99.90;;;;;;5055892;28;19924;-76
2022/01/10 05:30:18;;;;;;;;;;;2.20;99.90;;;;;;5055948;28;20018;-76
2022/01/10 05:32:43;;;;;;;;;;;1.50;99.90;;;;;;5055930;28;20003;-76
2022/01/10 05:35:09;;;;;;;;;;;1.50;99.90;;;;;;5055799;28;19921;-76
2022/01/10 05:37:34;;;;;;;;;;;1.50;99.90;;;;;;5055707;28;20334;-78
2022/01/10 05:40:00;;;;;;;;;;;1.50;99.90;;;;;;5055489;28;20272;-76
2022/01/10 05:42:25;;;;;;;;;;;1.50;99.90;;;;;;5054636;28;19921;-76
2022/01/10 05:44:51;;;;;;;;;;;1.40;99.90;;;;;;5055666;28;19960;-75
2022/01/10 05:47:16;;;;;;;;;;;2.40;99.90;;;;;;5055682;28;19924;-76
2022/01/10 05:49:47;;;;;;;;;;;1.70;99.90;;;;;;5055539;28;20008;-76
2022/01/10 05:52:13;;;;;;;;;;;1.40;99.90;;;;;;5053165;28;20019;-81
2022/01/10 05:54:38;;;;;;;;;;;2.40;99.90;;;;;;5055269;28;19964;-76
2022/01/10 05:57:04;;;;;;;;;;;1.90;99.90;;;;;;5055063;28;19920;-77
2022/01/10 05:59:31;;;;;;;;;;;1.40;99.90;;;;;;5055455;28;19920;-74
2022/01/10 06:01:57;;;;;;;;;;;1.40;99.90;;;;;;5055359;28;19924;-76
2022/01/10 06:04:22;;;;;;;;;;;1.40;99.90;;;;;;5055214;28;19920;-76
2022/01/10 06:06:48;;;;;;;;;;;1.90;99.90;;;;;;5055087;28;19921;-77
2022/01/10 06:09:14;;;;;;;;;;;1.40;99.90;;;;;;5055089;28;19973;-76
2022/01/10 06:11:40;;;;;;;;;;;2.60;99.90;;;;;;5054854;28;19968;-77
2022/01/10 06:14:07;;;;;;;;;;;1.40;99.90;;;;;;5054100;28;19925;-75
2022/01/10 06:16:33;;;;;;;;;;;1.40;99.90;;;;;;5054957;28;19927;-76
2022/01/10 06:18:58;;;;;;;;;;;2.00;99.90;;;;;;5054059;28;19921;-75
2022/01/10 06:21:24;;;;;;;;;;;1.30;99.90;;;;;;5054900;28;20296;-77
2022/01/10 06:23:50;;;;;;;;;;;1.30;99.90;;;;;;5053631;28;19970;-78
2022/01/10 06:26:15;;;;;;;;;;;2.00;99.90;;;;;;5054734;28;19921;-76
2022/01/10 06:28:41;;;;;;;;;;;3.00;99.90;;;;;;5054801;28;20327;-76
2022/01/10 06:31:07;;;;;;;;;;;3.10;99.90;;;;;;5053676;28;19924;-75
2022/01/10 06:33:32;;;;;;;;;;;1.30;99.90;;;;;;5054679;28;19967;-76
2022/01/10 06:35:58;;;;;;;;;;;1.30;99.90;;;;;;5054555;28;19921;-76
2022/01/10 06:38:23;;;;;;;;;;;1.60;99.90;;;;;;5054611;28;19975;-79
2022/01/10 06:40:49;;;;;;;;;;;1.30;99.90;;;;;;5054466;28;19920;-76
2022/01/10 06:43:15;;;;;;;;;;;1.30;99.90;;;;;;5053363;28;20363;-76
2022/01/10 06:45:40;;;;;;;;;;;3.00;99.90;;;;;;5054465;28;19920;-77
2022/01/10 06:48:06;;;;;;;;;;;1.20;99.90;;;;;;5054465;28;19920;-75
2022/01/10 06:50:31;;;;;;;;;;;1.60;99.90;;;;;;5054358;28;19921;-78
2022/01/10 06:52:57;;;;;;;;;;;2.90;99.90;;;;;;5054227;28;20394;-76
2022/01/10 06:55:23;;;;;;;;;;;1.20;99.90;;;;;;5054246;28;19927;-76
2022/01/10 06:57:49;;;;;;;;;;;2.60;99.90;;;;;;5053914;28;20469;-78
2022/01/10 07:00:15;;;;;;;;;;;1.20;99.90;;;;;;5053987;28;20007;-77
2022/01/10 07:02:40;;;;;;;;;;;2.30;99.90;;;;;;5054047;28;19921;-77
2022/01/10 07:05:06;;;;;;;;;;;1.40;99.90;;;;;;5053057;28;20379;-78
2022/01/10 07:07:32;;;;;;;;;;;1.20;99.90;;;;;;5054086;28;19921;-75
2022/01/10 07:09:57;;;;;;;;;;;2.60;99.90;;;;;;5052800;28;20383;-81
2022/01/10 07:12:23;;;;;;;;;;;1.10;99.90;;;;;;5053784;28;19927;-75
2022/01/10 07:14:49;;;;;;;;;;;1.00;99.90;;;;;;5053796;28;19927;-75
2022/01/10 07:17:14;;;;;;;;;;;2.70;99.90;;;;;;5054113;28;19920;-76
2022/01/10 07:19:40;;;;;;;;;;;1.10;99.90;;;;;;5054003;28;19920;-77
2022/01/10 07:22:05;;;;;;;;;;;1.00;99.90;;;;;;5052655;28;19925;-79
2022/01/10 07:24:32;;;;;;;;;;;1.50;99.90;;;;;;5053815;28;19971;-75
2022/01/10 07:26:58;;;;;;;;;;;1.70;99.90;;;;;;5051520;28;19994;-78
2022/01/10 07:29:23;;;;;;;;;;;1.00;99.90;;;;;;5053181;28;19991;-75
2022/01/10 07:31:49;;;;;;;;;;;1.00;99.90;;;;;;5053901;28;19921;-76
2022/01/10 07:34:15;;;;;;;;;;;1.60;99.90;;;;;;5053347;28;20307;-76
2022/01/10 07:36:41;;;;;;;;;;;1.00;99.90;;;;;;5053411;28;19920;-75
2022/01/10 07:39:07;;;;;;;;;;;2.30;99.90;;;;;;5053623;28;19940;-75
2022/01/10 07:41:33;;;;;;;;;;;2.60;99.90;;;;;;5052623;28;19920;-75
2022/01/10 07:43:59;;;;;;;;;;;-0.80;99.90;;;;;;5053356;28;20394;-76
2022/01/10 07:46:25;;;;;;;;;;;2.00;99.90;;;;;;5053726;28;19924;-78
2022/01/10 07:48:54;;;;;;;;;;;2.70;99.90;;;;;;5053532;28;19921;-78
2022/01/10 07:51:19;;;;;;;;;;;1.40;99.90;;;;;;5053532;28;19974;-76
2022/01/10 07:53:45;;;;;;;;;;;0.80;99.90;;;;;;5053422;28;19921;-75
2022/01/10 07:56:11;;;;;;;;;;;2.30;99.90;;;;;;5053320;28;19983;-75
2022/01/10 07:58:36;;;;;;;;;;;1.90;99.90;;;;;;5052895;28;19920;-75
2022/01/10 08:01:02;;;;;;;;;;;0.90;99.90;;;;;;5053289;28;19933;-77
2022/01/10 08:03:28;;;;;;;;;;;0.90;99.90;;;;;;5053456;28;19921;-75
2022/01/10 08:05:54;;;;;;;;;;;0.80;99.90;;;;;;5053328;28;19921;-79
2022/01/10 08:08:19;;;;;;;;;;;0.80;99.90;;;;;;5053211;28;20015;-74
2022/01/10 08:10:45;;;;;;;;;;;0.80;99.90;;;;;;5051954;28;19967;-78
2022/01/10 08:13:11;;;;;;;;;;;2.00;99.90;;;;;;5053145;28;19928;-78
2022/01/10 08:15:36;;;;;;;;;;;1.00;99.90;;;;;;5054450;28;19944;-75
2022/01/10 08:18:02;;;;;;;;;;;0.70;99.90;;;;;;5057266;28;19944;-75
2022/01/10 08:20:28;;;;;;;;;;;0.70;99.90;;;;;;5056234;28;20001;-76
2022/01/10 08:22:53;;;;;;;;;;;0.80;99.90;;;;;;5057169;28;19920;-78
2022/01/10 08:25:19;;;;;;;;;;;0.90;99.90;;;;;;5056110;28;20011;-75
2022/01/10 08:27:45;;;;;;;;;;;1.90;99.90;;;;;;5056748;28;19928;-78
2022/01/10 08:30:10;;;;;;;;;;;0.80;99.90;;;;;;5055671;28;19924;-78
2022/01/10 08:32:36;;;;;;;;;;;0.80;99.90;;;;;;5057073;28;19920;-76
2022/01/10 08:35:02;;;;;;;;;;;2.40;99.90;;;;;;5056896;28;19920;-77
2022/01/10 08:37:28;;;;;;;;;;;0.90;99.90;;;;;;5056874;28;19920;-78
2022/01/10 08:39:54;;;;;;;;;;;1.80;99.90;;;;;;5056836;28;19928;-77
2022/01/10 08:42:19;;;;;;;;;;;0.90;99.90;;;;;;5072142;28;19921;-77
2022/01/10 08:44:45;;;;;;;;;;;0.90;99.90;;;;;;5055735;28;20015;-75
2022/01/10 08:47:11;;;;;;;;;;;0.90;99.90;;;;;;5056537;28;19921;-75
2022/01/10 08:49:37;;;;;;;;;;;0.80;99.90;;;;;;5056692;28;19925;-78
2022/01/10 08:52:02;;;;;;;;;;;0.10;99.90;;;;;;5055717;28;19921;-75
2022/01/10 08:54:28;;;;;;;;;;;1.00;99.90;;;;;;5056512;28;19928;-75
2022/01/10 08:56:54;;;;;;;;;;;1.00;99.90;;;;;;5056280;28;19928;-77
2022/01/10 08:59:20;;;;;;;;;;;1.00;99.90;;;;;;5055418;28;19975;-75
2022/01/10 09:01:46;;;;;;;;;;;1.10;99.90;;;;;;5056528;28;19927;-75
2022/01/10 09:04:18;;;;;;;;;;;1.10;99.90;;;;;;5056442;28;19920;-78
2022/01/10 09:06:45;;;;;;;;;;;3.00;99.90;;;;;;5056484;28;19921;-75
2022/01/10 09:09:11;;;;;;;;;;;1.10;99.90;;;;;;5071282;28;19971;-77
2022/01/10 09:11:36;;;;;;;;;;;1.20;99.90;;;;;;5056336;28;19921;-78
2022/01/10 09:14:02;;;;;;;;;;;1.20;99.90;;;;;;5055075;28;19928;-76
2022/01/10 09:16:27;;;;;;;;;;;1.20;99.90;;;;;;5055841;28;19955;-76
2022/01/10 09:18:53;;;;;;;;;;;1.20;99.90;;;;;;5056197;28;19921;-78
2022/01/10 09:21:19;;;;;;;;;;;1.20;99.90;;;;;;5054916;28;19921;-74
2022/01/10 09:23:44;;;;;;;;;;;1.20;99.90;;;;;;5056061;28;19920;-77
2022/01/10 09:26:10;;;;;;;;;;;1.30;99.90;;;;;;5055601;28;19928;-75
2022/01/10 09:28:35;;;;;;;;;;;1.40;99.90;;;;;;5054663;28;19921;-75
2022/01/10 09:31:01;;;;;;;;;;;1.30;99.90;;;;;;5054899;28;19928;-76
2022/01/10 09:33:27;;;;;;;;;;;1.30;99.90;;;;;;5055978;28;19920;-80
2022/01/10 09:35:52;;;;;;;;;;;2.30;99.90;;;;;;5055937;28;20279;-79
2022/01/10 09:38:18;;;;;;;;;;;1.50;99.90;;;;;;5054461;28;20286;-79
2022/01/10 09:40:44;;;;;;;;;;;3.10;99.90;;;;;;5055483;28;19920;-75
2022/01/10 09:43:09;;;;;;;;;;;1.70;99.90;;;;;;5055504;28;20011;-76
2022/01/10 09:45:36;;;;;;;;;;;2.70;99.90;;;;;;5053693;28;20387;-75
2022/01/10 09:48:03;;;;;;;;;;;1.50;99.90;;;;;;5070559;28;20363;-78
2022/01/10 09:50:30;;;;;;;;;;;1.50;99.90;;;;;;5055361;28;19921;-75
2022/01/10 09:52:57;;;;;;;;;;;1.60;99.90;;;;;;5070553;28;20415;-76
2022/01/10 09:55:30;;;;;;;;;;;1.60;99.90;;;;;;5055372;28;19920;-77
2022/01/10 09:57:58;;;;;;;;;;;1.70;99.90;;;;;;5054878;28;20338;-75
2022/01/10 10:00:26;;;;;;;;;;;1.70;99.90;;;;;;5054738;28;19921;-75
2022/01/10 10:02:53;;;;;;;;;;;1.70;99.90;;;;;;5055194;28;19920;-73
2022/01/10 10:05:20;;;;;;;;;;;1.80;99.90;;;;;;5055096;28;20360;-75
2022/01/10 10:07:48;;;;;;;;;;;1.80;99.90;;;;;;5055108;28;19927;-78
2022/01/10 10:10:15;;;;;;;;;;;1.80;99.90;;;;;;5054687;28;20272;-76
2022/01/10 10:12:58;;;;;;;;;;;1.90;99.90;;;;;;5054611;28;19924;-75
2022/01/10 10:15:30;;;;;;;;;;;1.90;99.90;;;;;;5054600;28;19988;-75
2022/01/10 10:17:57;;;;;;;;;;;2.00;99.90;;;;;;5054648;28;20426;-75
2022/01/10 10:20:25;;;;;;;;;;;2.00;99.90;;;;;;5054481;28;19921;-77
2022/01/10 10:22:54;;;;;;;;;;;2.00;99.90;;;;;;5054605;28;19921;-75
2022/01/10 10:25:21;;;;;;;;;;;2.00;99.90;;;;;;5054557;28;20269;-75
2022/01/10 10:27:59;;;;;;;;;;;2.10;99.90;;;;;;5054401;28;20029;-75
2022/01/10 10:30:27;;;;;;;;;;;2.10;99.90;;;;;;5053089;28;20284;-75
2022/01/10 10:33:13;;;;;;;;;;;2.10;99.90;;;;;;5054380;28;19921;-78
2022/01/10 10:35:40;;;;;;;;;;;2.20;99.90;;;;;;5054230;28;20314;-75
2022/01/10 10:38:07;;;;;;;;;;;2.20;99.90;;;;;;5053456;28;19928;-75
2022/01/10 10:40:41;;;;;;;;;;;2.20;99.90;;;;;;5054196;28;19924;-75
2022/01/10 10:43:09;;;;;;;;;;;2.30;99.90;;;;;;5054123;28;20385;-75
2022/01/10 10:45:36;;;;;;;;;;;2.30;99.90;;;;;;5054308;28;20268;-74
2022/01/10 10:48:06;;;;;;;;;;;2.40;99.90;;;;;;5054213;28;19921;-75
2022/01/10 10:50:43;;;;;;;;;;;2.40;99.90;;;;;;5053907;28;20334;-75
2022/01/10 10:53:13;;;;;;;;;;;2.50;99.90;;;;;;5053920;28;19928;-76
2022/01/10 10:55:41;;;;;;;;;;;2.50;99.90;;;;;;5054333;28;19925;-74
2022/01/10 10:58:13;;;;;;;;;;;2.50;99.90;;;;;;5053561;28;19925;-78
2022/01/10 11:00:40;;;;;;;;;;;2.60;99.90;;;;;;5053657;28;19921;-75
2022/01/10 11:03:09;;;;;;;;;;;2.70;99.90;;;;;;5053809;28;19925;-76
2022/01/10 11:05:36;;;;;;;;;;;2.80;99.90;;;;;;5053746;28;20027;-77
2022/01/10 11:08:03;;;;;;;;;;;2.80;99.90;;;;;;5052878;28;19920;-76
2022/01/10 11:10:32;;;;;;;;;;;2.80;99.90;;;;;;5053555;28;20281;-77
2022/01/10 11:13:12;;;;;;;;;;;2.90;99.90;;;;;;5053515;28;19968;-79
2022/01/10 11:15:40;;;;;;;;;;;2.90;99.90;;;;;;5053551;28;20014;-78
2022/01/10 11:18:08;;;;;;;;;;;3.00;99.90;;;;;;5052330;28;20294;-76
2022/01/10 11:20:43;;;;;;;;;;;3.00;99.90;;;;;;5053876;28;19920;-79
2022/01/10 11:23:11;;;;;;;;;;;3.00;99.90;;;;;;5053689;28;19920;-74
2022/01/10 11:25:40;;;;;;;;;;;3.10;99.90;;;;;;5052553;28;19924;-75
2022/01/10 11:28:26;;;;;;;;;;;3.20;99.90;;;;;;5053228;28;19967;-75
2022/01/10 11:31:00;;;;;;;;;;;3.20;99.90;;;;;;5052012;28;19928;-75
2022/01/10 11:33:32;;;;;;;;;;;3.30;99.90;;;;;;5053622;28;20296;-77
2022/01/10 11:36:02;;;;;;;;;;;3.30;99.90;;;;;;5052595;28;19920;-76
2022/01/10 11:38:37;;;;;;;;;;;3.40;99.90;;;;;;5053327;28;19924;-75
2022/01/10 11:41:03;;;;;;;;;;;3.40;99.90;;;;;;5053352;28;19920;-76
2022/01/10 11:43:37;;;;;;;;;;;3.50;99.90;;;;;;5053241;28;19921;-76
2022/01/10 11:46:15;;;;;;;;;;;3.50;99.90;;;;;;5053536;28;19960;-75
2022/01/10 11:48:44;;;;;;;;;;;3.60;99.90;;;;;;5054069;28;19921;-75
2022/01/10 11:51:22;;;;;;;;;;;3.60;99.90;;;;;;5057332;28;19924;-75
2022/01/10 11:53:50;;;;;;;;;;;3.70;99.90;;;;;;5057249;28;20341;-77
2022/01/10 11:56:25;;;;;;;;;;;3.70;99.90;;;;;;5056622;28;19920;-77
2022/01/10 11:59:10;;;;;;;;;;;3.80;99.90;;;;;;5056073;28;19921;-77
2022/01/10 12:01:39;;;;;;;;;;;3.80;99.90;;;;;;5057151;28;19924;-77
2022/01/10 12:04:06;;;;;;;;;;;3.90;99.90;;;;;;5057297;28;19928;-76
2022/01/10 12:06:33;;;;;;;;;;;3.90;99.90;;;;;;5057027;28;19927;-75
2022/01/10 12:09:01;;;;;;;;;;;4.00;99.90;;;;;;5057333;28;19921;-76
2022/01/10 12:11:28;;;;;;;;;;;4.10;99.90;;;;;;5057252;28;19943;-78
2022/01/10 12:14:00;;;;;;;;;;;4.10;99.90;;;;;;5057069;28;19921;-78
2022/01/10 12:16:27;;;;;;;;;;;4.20;99.90;;;;;;5056998;28;20011;-78
2022/01/10 12:18:55;;;;;;;;;;;4.20;99.90;;;;;;5055633;28;20326;-75
2022/01/10 12:21:22;;;;;;;;;;;4.30;99.90;;;;;;5056811;28;19925;-76
2022/01/10 12:23:49;;;;;;;;;;;4.30;99.90;;;;;;5056933;28;20009;-79
2022/01/10 12:26:17;;;;;;;;;;;4.40;99.90;;;;;;5056908;28;19921;-77
2022/01/10 12:28:44;;;;;;;;;;;4.40;99.90;;;;;;5056379;28;20367;-79
2022/01/10 12:31:11;;;;;;;;;;;4.50;99.90;;;;;;5057038;28;19970;-76
2022/01/10 12:33:38;;;;;;;;;;;4.50;99.90;;;;;;5056663;28;19925;-80
2022/01/10 12:36:05;;;;;;;;;;;4.60;99.90;;;;;;5056627;28;20000;-75
2022/01/10 12:38:32;;;;;;;;;;;4.60;99.90;;;;;;5056744;28;19991;-75
2022/01/10 12:40:59;;;;;;;;;;;4.70;99.90;;;;;;5055761;28;20388;-78
2022/01/10 12:43:25;;;;;;;;;;;4.80;99.90;;;;;;5056411;28;19920;-76
2022/01/10 12:45:52;;;;;;;;;;;4.80;99.90;;;;;;5056557;28;20011;-78
2022/01/10 12:48:22;;;;;;;;;;;4.90;99.90;;;;;;5056367;28;19927;-75
2022/01/10 12:50:51;;;;;;;;;;;4.90;99.90;;;;;;5055336;28;19925;-79
2022/01/10 12:53:18;;;;;;;;;;;4.90;99.90;;;;;;5056132;28;19925;-76
2022/01/10 12:55:47;;;;;;;;;;;4.90;99.90;;;;;;5056385;28;19921;-78
2022/01/10 12:58:15;;;;;;;;;;;4.90;99.90;;;;;;5055114;28;20304;-79
2022/01/10 13:00:43;;;;;;;;;;;5.00;99.90;;;;;;5055430;28;20395;-76
2022/01/10 13:03:10;;;;;;;;;;;5.00;99.90;;;;;;5055039;28;20355;-75
2022/01/10 13:05:39;;;;;;;;;;;5.10;99.90;;;;;;5056148;28;20008;-74
2022/01/10 13:08:06;;;;;;;;;;;5.10;99.90;;;;;;5056349;28;20372;-77
2022/01/10 13:10:37;;;;;;;;;;;5.20;99.90;;;;;;5055901;28;19975;-74
2022/01/10 13:13:04;;;;;;;;;;;5.20;99.90;;;;;;5056215;28;19921;-78
2022/01/10 13:15:33;;;;;;;;;;;5.20;99.90;;;;;;5055912;28;19924;-75
2022/01/10 13:18:00;;;;;;;;;;;5.20;99.90;;;;;;5055951;28;19921;-76
2022/01/10 13:20:32;;;;;;;;;;;5.20;99.90;;;;;;5056236;28;19927;-76
2022/01/10 13:23:03;;;;;;;;;;;5.30;99.90;;;;;;5055815;28;19924;-75
2022/01/10 13:25:40;;;;;;;;;;;5.20;99.90;;;;;;5055938;28;19982;-78
2022/01/10 13:28:09;;;;;;;;;;;5.20;99.90;;;;;;5071027;28;20288;-75
2022/01/10 13:30:37;;;;;;;;;;;5.20;99.90;;;;;;5055076;28;19970;-77
2022/01/10 13:33:08;;;;;;;;;;;5.20;99.90;;;;;;5055661;28;20354;-76
2022/01/10 13:35:36;;;;;;;;;;;5.20;99.90;;;;;;5055705;28;20012;-76
2022/01/10 13:38:05;;;;;;;;;;;5.20;99.90;;;;;;5071003;28;19963;-75
2022/01/10 13:40:41;;;;;;;;;;;5.20;99.90;;;;;;5054659;28;20205;-76
2022/01/10 13:43:09;;;;;;;;;;;5.20;99.90;;;;;;5055265;28;19939;-76
2022/01/10 13:45:43;;;;;;;;;;;5.20;99.90;;;;;;5055640;28;19947;-75
2022/01/10 13:48:13;;;;;;;;;;;5.20;99.90;;;;;;5055575;28;19921;-75
2022/01/10 13:50:43;;;;;;;;;;;5.30;99.90;;;;;;5055360;28;20295;-76
2022/01/10 13:53:17;;;;;;;;;;;5.30;99.90;;;;;;5054708;28;19970;-78
2022/01/10 13:55:45;;;;;;;;;;;5.40;99.90;;;;;;5053791;28;20253;-79
2022/01/10 13:58:24;;;;;;;;;;;5.40;99.90;;;;;;5070743;28;19928;-77
2022/01/10 14:00:56;;;;;;;;;;;5.40;99.90;;;;;;5069705;28;19928;-75
2022/01/10 14:03:25;;;;;;;;;;;5.40;99.90;;;;;;5055336;28;19921;-74
2022/01/10 14:06:06;;;;;;;;;;;5.40;99.90;;;;;;5055094;28;19971;-75
2022/01/10 14:08:36;;;;;;;;;;;5.50;99.90;;;;;;5052466;28;19974;-79
2022/01/10 14:11:17;;;;;;;;;;;5.50;99.90;;;;;;5054708;28;19921;-76
2022/01/10 14:14:00;;;;;;;;;;;5.50;99.90;;;;;;5053927;28;19924;-75
2022/01/10 14:16:36;;;;;;;;;;;5.50;99.90;;;;;;5054734;28;19929;-76
2022/01/10 14:19:03;;;;;;;;;;;5.50;99.90;;;;;;5054768;28;19968;-75
2022/01/10 14:21:31;;;;;;;;;;;5.50;99.90;;;;;;5054781;28;19921;-75
2022/01/10 14:23:58;;;;;;;;;;;5.40;99.90;;;;;;5054779;28;19921;-76
2022/01/10 14:26:25;;;;;;;;;;;5.40;99.90;;;;;;5054084;28;19967;-79
2022/01/10 14:29:04;;;;;;;;;;;5.40;99.90;;;;;;5054594;28;19921;-77
2022/01/10 14:31:33;;;;;;;;;;;5.30;99.90;;;;;;5054159;28;19920;-76
2022/01/10 14:34:02;;;;;;;;;;;5.30;99.90;;;;;;5052724;28;19921;-76
2022/01/10 14:36:29;;;;;;;;;;;5.30;99.90;;;;;;5054350;28;19921;-75
2022/01/10 14:38:57;;;;;;;;;;;5.20;99.90;;;;;;5054622;28;19920;-76
2022/01/10 14:41:26;;;;;;;;;;;5.30;99.90;;;;;;5053324;28;20395;-76